createdAt,value
2019-02-22T00:00:10.226Z,25.20
2019-02-22T00:02:40.611Z,22.43
2019-02-22T00:05:09.571Z,17.37
2019-02-22T00:07:38.368Z,21.77
2019-02-22T00:10:08.917Z,23.87
2019-02-22T00:12:37.755Z,25.73
2019-02-22T00:15:07.459Z,24.12
2019-02-22T00:17:36.923Z,26.10
2019-02-22T00:20:06.022Z,22.00
2019-02-22T00:22:34.807Z,22.55
2019-02-22T00:25:03.771Z,20.77
2019-02-22T00:27:32.560Z,29.17
2019-02-22T00:30:01.349Z,20.53
2019-02-22T00:32:30.150Z,20.70
2019-02-22T00:34:59.098Z,26.53
2019-02-22T00:37:28.317Z,28.00
2019-02-22T00:39:57.452Z,21.43
2019-02-22T00:42:26.272Z,26.97
2019-02-22T00:44:55.166Z,22.80
2019-02-22T00:47:24.028Z,27.60
2019-02-22T00:49:52.816Z,21.50
2019-02-22T00:52:21.810Z,20.53
2019-02-22T00:54:50.764Z,22.40
2019-02-22T00:57:19.589Z,19.47
2019-02-22T00:59:48.466Z,27.20
2019-02-22T01:02:17.255Z,18.60
2019-02-22T01:04:46.372Z,27.87
2019-02-22T01:07:15.249Z,22.87
2019-02-22T01:09:44.114Z,23.47
2019-02-22T01:12:12.924Z,20.47
2019-02-22T01:14:41.716Z,29.70
2019-02-22T01:17:10.582Z,19.80
2019-02-22T01:19:39.539Z,28.62
2019-02-22T01:22:08.400Z,23.05
2019-02-22T01:24:37.180Z,23.03
2019-02-22T01:27:06.060Z,23.60
2019-02-22T01:29:36.095Z,25.57
2019-02-22T01:32:04.934Z,27.37
2019-02-22T01:34:33.841Z,28.40
2019-02-22T01:37:02.650Z,27.03
2019-02-22T01:39:31.433Z,23.23
2019-02-22T01:42:00.388Z,31.73
2019-02-22T01:44:29.171Z,29.30
2019-02-22T01:46:57.993Z,27.60
2019-02-22T01:49:26.850Z,23.90
2019-02-22T01:51:55.641Z,29.07
2019-02-22T01:54:24.444Z,26.00
2019-02-22T01:56:53.297Z,25.27
2019-02-22T01:59:22.250Z,29.27
2019-02-22T02:01:51.058Z,25.05
2019-02-22T02:04:19.851Z,28.33
2019-02-22T02:06:48.757Z,24.93
2019-02-22T02:09:20.667Z,26.77
2019-02-22T02:11:49.647Z,27.42
2019-02-22T02:14:18.465Z,23.20
2019-02-22T02:16:47.254Z,24.13
2019-02-22T02:19:16.043Z,23.03
2019-02-22T02:21:44.839Z,22.70
2019-02-22T02:24:13.716Z,25.87
2019-02-22T02:26:42.496Z,27.37
2019-02-22T02:29:12.285Z,29.57
2019-02-22T02:31:41.093Z,28.03
2019-02-22T02:34:09.894Z,25.40
2019-02-22T02:36:38.694Z,38.47
2019-02-22T02:39:08.127Z,27.65
2019-02-22T02:41:36.945Z,27.53
2019-02-22T02:44:05.796Z,22.27
2019-02-22T02:46:34.588Z,24.93
2019-02-22T02:49:03.475Z,24.97
2019-02-22T02:51:32.260Z,24.93
2019-02-22T02:54:01.050Z,31.53
2019-02-22T02:56:29.903Z,24.50
2019-02-22T02:58:58.690Z,20.00
2019-02-22T03:01:27.494Z,28.07
2019-02-22T03:03:56.488Z,26.30
2019-02-22T03:06:32.323Z,19.40
2019-02-22T03:09:01.128Z,23.53
2019-02-22T03:11:29.976Z,23.87
2019-02-22T03:13:58.795Z,30.57
2019-02-22T03:16:27.579Z,24.27
2019-02-22T03:18:56.451Z,27.40
2019-02-22T03:21:25.243Z,25.93
2019-02-22T03:23:54.050Z,24.50
2019-02-22T03:26:22.853Z,26.40
2019-02-22T03:28:51.728Z,25.70
2019-02-22T03:31:20.587Z,25.63
2019-02-22T03:33:49.390Z,27.70
2019-02-22T03:36:18.177Z,36.00
2019-02-22T03:38:46.999Z,32.20
2019-02-22T03:41:15.776Z,45.50
2019-02-22T03:43:45.568Z,34.67
2019-02-22T03:46:14.369Z,36.93
2019-02-22T03:48:43.169Z,42.70
2019-02-22T03:51:11.973Z,32.17
2019-02-22T03:53:50.016Z,33.35
2019-02-22T03:56:19.062Z,31.90
2019-02-22T03:58:48.085Z,36.07
2019-02-22T04:01:16.943Z,40.23
2019-02-22T04:03:46.541Z,38.28
2019-02-22T04:06:15.340Z,34.92
2019-02-22T04:08:44.134Z,38.17
2019-02-22T04:11:12.919Z,30.47
2019-02-22T04:13:41.877Z,34.55
2019-02-22T04:16:10.671Z,40.78
2019-02-22T04:18:39.647Z,37.10
2019-02-22T04:21:08.423Z,38.17
2019-02-22T04:23:37.399Z,31.60
2019-02-22T04:26:06.170Z,32.03
2019-02-22T04:28:35.021Z,36.15
2019-02-22T04:31:03.809Z,33.37
2019-02-22T04:33:32.700Z,39.03
2019-02-22T04:36:01.513Z,36.90
2019-02-22T04:38:30.276Z,30.93
2019-02-22T04:40:59.060Z,33.80
2019-02-22T04:43:27.939Z,29.80
2019-02-22T04:45:56.803Z,32.25
2019-02-22T04:48:25.601Z,30.03
2019-02-22T04:50:54.479Z,27.98
2019-02-22T04:53:23.277Z,29.37
2019-02-22T04:55:52.074Z,35.97
2019-02-22T04:58:20.871Z,34.50
2019-02-22T05:00:49.732Z,31.52
2019-02-22T05:03:18.537Z,38.93
2019-02-22T05:05:47.966Z,36.90
2019-02-22T05:08:16.775Z,39.70
2019-02-22T05:10:45.727Z,35.87
2019-02-22T05:13:14.608Z,51.40
2019-02-22T05:15:43.478Z,46.23
2019-02-22T05:18:12.372Z,38.47
2019-02-22T05:20:41.278Z,43.50
2019-02-22T05:23:10.086Z,47.05
2019-02-22T05:25:38.921Z,45.90
2019-02-22T05:28:07.726Z,53.00
2019-02-22T05:30:36.702Z,43.77
2019-02-22T05:33:05.573Z,50.40
2019-02-22T05:35:34.414Z,49.88
2019-02-22T05:38:03.227Z,54.40
2019-02-22T05:40:32.051Z,54.70
2019-02-22T05:43:00.848Z,51.73
2019-02-22T05:45:29.672Z,51.73
2019-02-22T05:47:58.491Z,50.03
2019-02-22T05:50:27.318Z,55.93
2019-02-22T05:52:56.128Z,57.60
2019-02-22T05:55:24.937Z,52.10
2019-02-22T05:57:53.734Z,62.90
2019-02-22T06:00:22.538Z,60.20
2019-02-22T06:02:51.334Z,41.47
2019-02-22T06:05:20.183Z,57.77
2019-02-22T06:07:49.292Z,54.75
2019-02-22T06:10:18.177Z,43.33
2019-02-22T06:12:47.112Z,67.47
2019-02-22T06:15:15.889Z,45.97
2019-02-22T06:17:44.703Z,56.37
2019-02-22T06:20:13.678Z,60.90
2019-02-22T06:22:42.471Z,61.67
2019-02-22T06:25:11.637Z,52.50
2019-02-22T06:27:40.809Z,61.42
2019-02-22T06:30:09.973Z,55.15
2019-02-22T06:32:39.069Z,53.50
2019-02-22T06:35:09.565Z,59.37
2019-02-22T06:37:38.435Z,56.03
2019-02-22T06:40:07.819Z,61.10
2019-02-22T06:42:45.257Z,53.63
2019-02-22T06:45:07.772Z,54.10
2019-02-22T06:47:36.649Z,66.10
2019-02-22T06:50:05.775Z,67.40
2019-02-22T06:52:34.644Z,56.73
2019-02-22T06:55:03.645Z,63.60
2019-02-22T06:57:32.425Z,54.70
2019-02-22T07:00:01.238Z,64.40
2019-02-22T07:02:30.033Z,61.33
2019-02-22T07:04:58.853Z,60.37
2019-02-22T07:07:27.676Z,57.17
2019-02-22T07:09:56.471Z,69.30
2019-02-22T07:12:31.006Z,78.13
2019-02-22T07:14:59.811Z,72.93
2019-02-22T07:17:28.616Z,74.93
2019-02-22T07:19:57.427Z,67.50
2019-02-22T07:22:26.293Z,75.97
2019-02-22T07:24:55.096Z,68.20
2019-02-22T07:27:23.889Z,61.20
2019-02-22T07:29:52.821Z,73.40
2019-02-22T07:32:21.697Z,77.30
2019-02-22T07:34:51.554Z,76.62
2019-02-22T07:37:20.349Z,72.82
2019-02-22T07:39:49.215Z,48.20
2019-02-22T07:42:18.076Z,63.60
2019-02-22T07:44:47.094Z,67.83
2019-02-22T07:47:15.895Z,74.13
2019-02-22T07:49:44.775Z,65.72
2019-02-22T07:52:13.594Z,72.17
2019-02-22T07:54:42.364Z,57.77
2019-02-22T07:57:11.244Z,134.83
2019-02-22T07:59:40.207Z,77.47
2019-02-22T08:02:09.080Z,60.30
2019-02-22T08:04:37.965Z,63.17
2019-02-22T08:07:07.063Z,68.73
2019-02-22T08:09:36.239Z,65.63
2019-02-22T08:12:05.410Z,65.57
2019-02-22T08:14:34.499Z,69.72
2019-02-22T08:17:03.337Z,63.28
2019-02-22T08:19:34.211Z,67.37
2019-02-22T08:22:03.613Z,54.37
2019-02-22T08:24:32.537Z,64.93
2019-02-22T08:27:01.338Z,58.53
2019-02-22T08:29:30.443Z,60.53
2019-02-22T08:31:59.488Z,55.70
2019-02-22T08:34:28.344Z,54.70
2019-02-22T08:36:57.176Z,49.97
2019-02-22T08:39:26.001Z,55.90
2019-02-22T08:41:54.845Z,57.40
2019-02-22T08:44:23.628Z,53.53
2019-02-22T08:46:53.321Z,55.75
2019-02-22T08:49:22.113Z,53.75
2019-02-22T08:51:50.919Z,48.90
2019-02-22T08:54:19.700Z,55.77
2019-02-22T08:56:48.600Z,53.02
2019-02-22T08:59:17.476Z,57.43
2019-02-22T09:01:46.295Z,63.50
2019-02-22T09:04:15.161Z,56.20
2019-02-22T09:06:44.144Z,46.07
2019-02-22T09:09:12.931Z,59.13
2019-02-22T09:11:41.749Z,51.07
2019-02-22T09:14:10.626Z,56.73
2019-02-22T09:16:39.464Z,40.07
2019-02-22T09:19:08.266Z,55.03
2019-02-22T09:21:37.051Z,46.67
2019-02-22T09:24:05.944Z,42.97
2019-02-22T09:26:34.755Z,45.77
2019-02-22T09:29:03.537Z,47.30
2019-02-22T09:31:32.413Z,49.05
2019-02-22T09:34:01.242Z,45.63
2019-02-22T09:36:30.116Z,49.30
2019-02-22T09:38:58.990Z,43.70
2019-02-22T09:41:27.781Z,45.50
2019-02-22T09:43:56.582Z,40.30
2019-02-22T09:46:25.375Z,42.40
2019-02-22T09:48:55.171Z,41.92
2019-02-22T09:51:23.976Z,49.77
2019-02-22T09:53:52.884Z,47.27
2019-02-22T09:56:21.738Z,52.53
2019-02-22T09:58:50.552Z,37.80
2019-02-22T10:01:19.440Z,35.25
2019-02-22T10:03:48.532Z,42.03
2019-02-22T10:06:18.339Z,32.27
2019-02-22T10:08:47.151Z,27.77
2019-02-22T10:11:15.944Z,32.90
2019-02-22T10:13:44.766Z,29.10
2019-02-22T10:16:13.564Z,25.37
2019-02-22T10:18:42.375Z,26.50
2019-02-22T10:21:11.160Z,22.70
2019-02-22T10:23:39.981Z,20.95
2019-02-22T10:26:08.817Z,14.27
2019-02-22T10:28:37.618Z,20.03
2019-02-22T10:31:06.482Z,19.97
2019-02-22T10:33:36.944Z,16.57
2019-02-22T10:36:05.992Z,20.60
2019-02-22T10:38:35.987Z,15.73
2019-02-22T10:41:05.050Z,17.33
2019-02-22T10:43:33.834Z,20.47
2019-02-22T10:46:02.636Z,14.20
2019-02-22T10:48:31.430Z,14.90
2019-02-22T10:51:00.216Z,15.23
2019-02-22T10:53:29.138Z,12.13
2019-02-22T10:55:57.911Z,16.23
2019-02-22T10:58:27.471Z,13.32
2019-02-22T11:00:56.387Z,18.02
2019-02-22T11:03:25.208Z,18.37
2019-02-22T11:05:54.007Z,10.63
2019-02-22T11:08:22.784Z,9.63
2019-02-22T11:10:51.559Z,9.90
2019-02-22T11:13:21.386Z,9.33
2019-02-22T11:15:50.324Z,7.20
2019-02-22T11:18:19.119Z,5.93
2019-02-22T11:20:48.072Z,7.35
2019-02-22T11:23:16.977Z,9.50
2019-02-22T11:25:45.926Z,10.50
2019-02-22T11:28:14.714Z,10.10
2019-02-22T11:30:43.503Z,12.13
2019-02-22T11:33:12.311Z,13.10
2019-02-22T11:35:41.087Z,8.27
2019-02-22T11:38:09.981Z,11.67
2019-02-22T11:40:38.776Z,7.80
2019-02-22T11:43:07.810Z,10.30
2019-02-22T11:45:37.019Z,10.03
2019-02-22T11:48:09.250Z,9.30
2019-02-22T11:50:36.646Z,13.80
2019-02-22T11:53:05.506Z,7.70
2019-02-22T11:55:34.434Z,7.37
2019-02-22T11:58:03.387Z,6.20
2019-02-22T12:00:33.652Z,7.30
2019-02-22T12:03:15.895Z,8.43
2019-02-22T12:05:33.098Z,6.33
2019-02-22T12:08:03.605Z,6.50
2019-02-22T12:10:32.736Z,11.53
2019-02-22T12:13:01.638Z,8.83
2019-02-22T12:15:31.488Z,6.90
2019-02-22T12:18:00.401Z,6.37
2019-02-22T12:20:30.154Z,7.90
2019-02-22T12:22:58.946Z,7.33
2019-02-22T12:25:27.811Z,6.97
2019-02-22T12:27:56.596Z,5.20
2019-02-22T12:30:25.818Z,4.00
2019-02-22T12:32:54.900Z,4.87
2019-02-22T12:35:23.888Z,4.57
2019-02-22T12:37:52.682Z,4.55
2019-02-22T12:40:21.477Z,4.67
2019-02-22T12:42:50.259Z,6.00
2019-02-22T12:45:19.157Z,3.73
2019-02-22T12:47:47.939Z,4.27
2019-02-22T12:50:16.834Z,4.73
2019-02-22T12:52:45.634Z,3.93
2019-02-22T12:55:14.505Z,4.03
2019-02-22T12:57:43.306Z,2.92
2019-02-22T13:00:13.132Z,4.93
2019-02-22T13:02:41.970Z,4.37
2019-02-22T13:05:12.607Z,6.50
2019-02-22T13:07:41.410Z,4.87
2019-02-22T13:10:10.569Z,5.00
2019-02-22T13:12:39.396Z,4.27
2019-02-22T13:15:14.011Z,3.73
2019-02-22T13:17:40.825Z,4.87
2019-02-22T13:20:09.898Z,6.92
2019-02-22T13:22:38.759Z,6.47
2019-02-22T13:25:07.895Z,6.57
2019-02-22T13:27:36.663Z,6.65
2019-02-22T13:30:06.833Z,3.57
2019-02-22T13:32:35.772Z,3.97
2019-02-22T13:35:05.051Z,8.53
2019-02-22T13:37:33.839Z,5.80
2019-02-22T13:40:03.275Z,7.50
2019-02-22T13:42:32.224Z,4.40
2019-02-22T13:45:01.115Z,4.93
2019-02-22T13:47:30.132Z,6.27
2019-02-22T13:49:58.996Z,4.90
2019-02-22T13:52:27.781Z,6.70
2019-02-22T13:54:56.571Z,5.75
2019-02-22T13:57:25.412Z,7.30
2019-02-22T13:59:54.215Z,5.90
2019-02-22T14:02:23.110Z,6.70
2019-02-22T14:04:51.973Z,5.27
2019-02-22T14:07:20.878Z,4.10
2019-02-22T14:09:49.656Z,5.13
2019-02-22T14:12:18.467Z,6.13
2019-02-22T14:14:47.251Z,5.60
2019-02-22T14:17:16.040Z,4.20
2019-02-22T14:19:44.825Z,6.77
2019-02-22T14:22:13.743Z,8.53
2019-02-22T14:24:42.512Z,7.47
2019-02-22T14:27:11.332Z,7.40
2019-02-22T14:29:40.149Z,10.53
2019-02-22T14:32:08.952Z,5.73
2019-02-22T14:34:37.825Z,10.57
2019-02-22T14:37:06.766Z,8.13
2019-02-22T14:39:35.640Z,5.90
2019-02-22T14:42:04.509Z,5.80
2019-02-22T14:44:33.286Z,4.83
2019-02-22T14:47:02.074Z,7.23
2019-02-22T14:49:30.875Z,4.08
2019-02-22T14:51:59.667Z,5.77
2019-02-22T14:54:28.519Z,5.67
2019-02-22T14:56:57.309Z,7.03
2019-02-22T14:59:26.212Z,5.37
2019-02-22T15:01:55.090Z,4.43
2019-02-22T15:04:23.881Z,2.50
2019-02-22T15:06:52.679Z,3.70
2019-02-22T15:09:21.474Z,3.80
2019-02-22T15:11:50.265Z,3.87
2019-02-22T15:14:19.056Z,3.92
2019-02-22T15:17:09.694Z,4.63
2019-02-22T15:19:38.486Z,4.73
2019-02-22T15:22:07.500Z,3.95
2019-02-22T15:24:36.284Z,2.47
2019-02-22T15:27:05.223Z,3.80
2019-02-22T15:29:37.076Z,3.53
2019-02-22T15:32:06.007Z,3.98
2019-02-22T15:34:34.800Z,4.03
2019-02-22T15:37:03.590Z,4.33
2019-02-22T15:39:32.372Z,6.30
2019-02-22T15:42:01.161Z,3.47
2019-02-22T15:44:30.005Z,5.03
2019-02-22T15:46:58.794Z,2.27
2019-02-22T15:49:28.033Z,4.53
2019-02-22T15:51:57.077Z,4.03
2019-02-22T15:54:26.233Z,6.37
2019-02-22T15:56:55.282Z,3.43
2019-02-22T15:59:24.345Z,4.10
2019-02-22T16:01:55.770Z,2.87
2019-02-22T16:04:49.077Z,4.70
2019-02-22T16:07:18.069Z,2.50
2019-02-22T16:09:46.914Z,3.40
2019-02-22T16:12:15.808Z,5.22
2019-02-22T16:14:44.573Z,4.53
2019-02-22T16:17:13.370Z,3.33
2019-02-22T16:19:42.154Z,3.00
2019-02-22T16:22:10.962Z,11.20
2019-02-22T16:24:40.514Z,4.10
2019-02-22T16:27:09.382Z,3.12
2019-02-22T16:29:38.174Z,2.70
2019-02-22T16:32:07.106Z,4.53
2019-02-22T16:34:43.560Z,3.00
2019-02-22T16:37:06.491Z,3.13
2019-02-22T16:39:35.373Z,3.87
2019-02-22T16:42:04.302Z,2.97
2019-02-22T16:44:33.363Z,3.50
2019-02-22T16:47:02.214Z,3.12
2019-02-22T16:49:31.078Z,3.60
2019-02-22T16:51:59.862Z,3.00
2019-02-22T16:54:28.651Z,5.73
2019-02-22T16:56:57.438Z,3.50
2019-02-22T16:59:26.443Z,2.60
2019-02-22T17:01:55.267Z,3.67
2019-02-22T17:04:24.153Z,4.67
2019-02-22T17:06:53.018Z,4.22
2019-02-22T17:09:21.805Z,5.13
2019-02-22T17:11:50.953Z,3.63
2019-02-22T17:14:20.104Z,5.73
2019-02-22T17:16:49.330Z,3.53
2019-02-22T17:19:18.317Z,4.00
2019-02-22T17:21:47.102Z,3.57
2019-02-22T17:24:15.962Z,3.33
2019-02-22T17:26:44.733Z,6.50
2019-02-22T17:29:13.524Z,3.90
2019-02-22T17:31:43.330Z,8.60
2019-02-22T17:34:12.201Z,3.30
2019-02-22T17:36:41.089Z,4.63
2019-02-22T17:39:10.026Z,3.27
2019-02-22T17:41:38.894Z,5.07
2019-02-22T17:44:07.761Z,5.30
2019-02-22T17:46:36.552Z,5.20
2019-02-22T17:49:05.337Z,6.50
2019-02-22T17:51:34.190Z,6.40
2019-02-22T17:54:02.989Z,7.10
2019-02-22T17:56:31.754Z,6.33
2019-02-22T17:59:00.537Z,6.40
2019-02-22T18:01:29.309Z,7.80
2019-02-22T18:03:58.096Z,3.50
2019-02-22T18:06:26.901Z,3.80
2019-02-22T18:08:55.687Z,7.90
2019-02-22T18:11:24.477Z,6.60
2019-02-22T18:13:53.267Z,9.67
2019-02-22T18:16:22.047Z,5.13
2019-02-22T18:18:50.922Z,7.93
2019-02-22T18:21:19.772Z,5.23
2019-02-22T18:23:48.631Z,11.37
2019-02-22T18:26:17.406Z,7.75
2019-02-22T18:28:46.191Z,8.93
2019-02-22T18:31:15.726Z,5.97
2019-02-22T18:33:44.633Z,5.30
2019-02-22T18:36:13.446Z,6.27
2019-02-22T18:38:42.233Z,6.10
2019-02-22T18:41:11.080Z,6.30
2019-02-22T18:43:39.942Z,7.10
2019-02-22T18:46:08.814Z,4.77
2019-02-22T18:48:37.617Z,8.50
2019-02-22T18:51:06.498Z,6.63
2019-02-22T18:53:35.282Z,5.07
2019-02-22T18:56:04.128Z,4.73
2019-02-22T18:58:33.040Z,5.47
2019-02-22T19:01:02.135Z,5.55
2019-02-22T19:03:31.280Z,4.87
2019-02-22T19:06:00.138Z,4.80
2019-02-22T19:08:32.401Z,7.70
2019-02-22T19:10:59.496Z,11.97
2019-02-22T19:13:28.301Z,7.80
2019-02-22T19:15:57.083Z,5.43
2019-02-22T19:18:25.869Z,6.47
2019-02-22T19:20:54.645Z,4.77
2019-02-22T19:23:23.601Z,4.73
2019-02-22T19:25:52.399Z,6.57
2019-02-22T19:28:21.349Z,11.40
2019-02-22T19:30:50.239Z,6.40
2019-02-22T19:33:19.036Z,8.80
2019-02-22T19:35:47.847Z,5.90
2019-02-22T19:38:17.602Z,6.47
2019-02-22T19:40:46.390Z,7.00
2019-02-22T19:43:15.245Z,9.07
2019-02-22T19:45:44.093Z,5.73
2019-02-22T19:48:12.869Z,5.73
2019-02-22T19:50:41.913Z,7.05
2019-02-22T19:53:10.727Z,5.75
2019-02-22T19:55:39.559Z,5.73
2019-02-22T19:58:08.332Z,10.20
2019-02-22T20:00:37.192Z,5.80
2019-02-22T20:03:06.108Z,8.48
2019-02-22T20:05:35.130Z,5.80
2019-02-22T20:08:04.241Z,5.30
2019-02-22T20:10:33.393Z,9.30
2019-02-22T20:13:02.520Z,11.73
2019-02-22T20:15:31.544Z,14.43
2019-02-22T20:18:01.355Z,8.98
2019-02-22T20:20:30.454Z,6.20
2019-02-22T20:22:59.249Z,6.47
2019-02-22T20:25:28.186Z,9.83
2019-02-22T20:27:57.021Z,6.13
2019-02-22T20:30:25.802Z,5.40
2019-02-22T20:32:54.602Z,6.60
2019-02-22T20:35:23.624Z,8.83
2019-02-22T20:37:53.402Z,14.80
2019-02-22T20:40:22.580Z,12.20
2019-02-22T20:42:51.375Z,11.23
2019-02-22T20:45:20.338Z,16.40
2019-02-22T20:47:49.272Z,11.70
2019-02-22T20:50:18.218Z,15.57
2019-02-22T20:52:47.170Z,14.80
2019-02-22T20:55:16.085Z,12.33
2019-02-22T20:57:44.860Z,15.63
2019-02-22T21:00:16.287Z,19.63
2019-02-22T21:02:45.096Z,23.37
2019-02-22T21:05:13.968Z,11.67
2019-02-22T21:07:42.746Z,13.10
2019-02-22T21:10:13.669Z,12.30
2019-02-22T21:12:42.463Z,14.75
2019-02-22T21:15:12.097Z,17.27
2019-02-22T21:17:40.979Z,16.40
2019-02-22T21:20:10.744Z,14.53
2019-02-22T21:22:39.608Z,17.13
2019-02-22T21:25:09.243Z,12.47
2019-02-22T21:27:38.093Z,13.63
2019-02-22T21:30:07.665Z,11.10
2019-02-22T21:32:36.443Z,5.13
2019-02-22T21:35:05.349Z,9.13
2019-02-22T21:37:34.215Z,7.45
2019-02-22T21:40:03.014Z,9.93
2019-02-22T21:42:31.884Z,10.93
2019-02-22T21:45:00.927Z,4.67
2019-02-22T21:47:29.986Z,10.90
2019-02-22T21:49:59.013Z,9.33
2019-02-22T21:52:27.987Z,11.47
2019-02-22T21:54:57.028Z,9.27
2019-02-22T21:57:25.814Z,10.33
2019-02-22T22:02:40.654Z,9.15
2019-02-22T22:05:09.690Z,7.87
2019-02-22T22:07:38.478Z,8.37
2019-02-22T22:10:07.306Z,6.70
2019-02-22T22:12:36.110Z,5.20
2019-02-22T22:15:05.320Z,5.20
2019-02-22T22:17:34.107Z,11.13
2019-02-22T22:20:03.096Z,10.70
2019-02-22T22:22:31.894Z,10.63
2019-02-22T22:25:00.689Z,6.43
2019-02-22T22:27:29.461Z,7.10
2019-02-22T22:29:58.349Z,4.80
2019-02-22T22:32:27.139Z,6.37
2019-02-22T22:34:55.968Z,9.35
2019-02-22T22:37:24.954Z,6.97
2019-02-22T22:39:53.757Z,10.70
2019-02-22T22:42:22.531Z,6.60
2019-02-22T22:44:51.998Z,8.38
2019-02-22T22:47:20.815Z,7.93
2019-02-22T22:49:49.596Z,8.40
2019-02-22T22:52:18.389Z,8.17
2019-02-22T22:54:47.183Z,8.35
2019-02-22T22:57:15.982Z,8.20
2019-02-22T22:59:44.780Z,10.77
2019-02-22T23:02:13.671Z,8.17
2019-02-22T23:04:42.517Z,16.90
2019-02-22T23:07:11.401Z,12.67
2019-02-22T23:09:40.294Z,18.43
2019-02-22T23:12:09.247Z,18.93
2019-02-22T23:14:38.059Z,17.10
2019-02-22T23:17:06.844Z,13.13
2019-02-22T23:19:35.633Z,24.40
2019-02-22T23:22:04.582Z,10.17
2019-02-22T23:24:33.487Z,15.70
2019-02-22T23:27:02.295Z,10.80
2019-02-22T23:29:31.084Z,8.53
2019-02-22T23:31:59.874Z,9.73
2019-02-22T23:34:28.730Z,13.27
2019-02-22T23:36:57.612Z,9.53
2019-02-22T23:39:26.414Z,11.20
2019-02-22T23:41:55.263Z,8.90
2019-02-22T23:44:24.040Z,11.13
2019-02-22T23:46:53.778Z,12.47
2019-02-22T23:49:22.592Z,9.38
2019-02-22T23:51:51.463Z,10.00
2019-02-22T23:54:20.331Z,8.23
2019-02-22T23:56:49.215Z,9.10
2019-02-22T23:59:18.010Z,6.83
